F/V Matmaco — FVNS — position and weather

sailwx.info

Track history (hours):
 
Tides and Currents Weather Stations Pressure Air Temp Water Temp Dewpoint Dewpoint Depression Visibility Wind Speed Wind Dir Waves Ship Positions

F/V Matmaco

Last reported at 2016-Dec-05 05:06 UTC. Time now 2016-Dec-05 08:31 UTC.
Position N 46°41' W 003°02'.

Length 20 m.

Type: Other ship. MMSI: 228194000.

Date/timePositionNaut miles runAvg speedWind from/ knotsBaromVisibWave heightAir tempDewpointWater temp
2016-Dec-05 05:06N 46°41' W 003°02'10 0.5
2016-Dec-04 06:16N 46°32' W 002°55'3 3.4
2016-Dec-04 05:19N 46°29' W 002°54'37 1.7
2016-Dec-03 07:33N 47°04' W 002°42'10 9.6
2016-Dec-03 06:30N 47°14' W 002°36'3 0.7
2016-Dec-03 02:12N 47°16' W 002°35'710.1
2016-Dec-03 01:33N 47°11' W 002°39'45 3.7
2016-Dec-02 13:25N 46°28' W 003°02'3 3.6
2016-Dec-02 12:33N 46°25' W 003°00'7 3.5
2016-Dec-02 10:32N 46°21' W 002°52'16 3.3
2016-Dec-02 05:32N 46°37' W 002°57'1 1.4
2016-Dec-02 04:33N 46°38' W 002°59'4 3.4
2016-Dec-02 03:30N 46°35' W 002°56'3 3.6
2016-Dec-02 02:33N 46°32' W 002°55'6 2.6
2016-Dec-02 00:09N 46°38' W 002°59'2 3.2
2016-Dec-01 23:33N 46°36' W 002°57'4 3.7
2016-Dec-01 22:30N 46°32' W 002°56'7 2.8
2016-Dec-01 20:06N 46°39' W 002°60'1 0.6
2016-Dec-01 19:06N 46°38' W 002°59'29 0.7
2016-Nov-30 04:33N 47°05' W 002°45'9 9.3
2016-Nov-30 03:33N 47°13' W 002°38'7 7.2
2016-Nov-30 02:33N 47°18' W 002°31'1 0.5
2016-Nov-30 01:20N 47°18' W 002°31'6 7.6
2016-Nov-30 00:32N 47°19' W 002°40'10 9.7
2016-Nov-29 23:30N 47°14' W 002°52'8 8.9
2016-Nov-29 22:33N 47°09' W 003°03'8 8.2
2016-Nov-29 21:33N 47°05' W 003°13'17 0.4
2016-Nov-28 05:27N 46°48' W 003°09'8 9.0
2016-Nov-28 04:31N 46°55' W 003°01'9 9.0
2016-Nov-28 03:33N 47°01' W 002°53'9 8.9
2016-Nov-28 02:33N 47°09' W 002°45'9 8.8
2016-Nov-28 01:33N 47°15' W 002°37'5 5.0
2016-Nov-28 00:33N 47°18' W 002°31'0 0.0
2016-Nov-26 05:09N 47°18' W 002°31'0 0.0
2016-Nov-26 04:30N 47°18' W 002°31'0 0.0
2016-Nov-26 03:30N 47°18' W 002°31'0 0.1
2016-Nov-26 02:26N 47°18' W 002°31'2 1.2
2016-Nov-26 00:32N 47°19' W 002°34'9 9.3
2016-Nov-25 23:33N 47°11' W 002°40'  
Track history (hours):
 
Tides and Currents Weather Stations Pressure Air Temp Water Temp Dewpoint Dewpoint Depression Visibility Wind Speed Wind Dir Waves Ship Positions

F/V Matmaco

Last reported at 2016-Dec-05 05:06 UTC. Time now 2016-Dec-05 08:31 UTC.
Position N 46°41' W 003°02'.

Length 20 m.

Type: Other ship. MMSI: 228194000.

Date/timePositionNaut miles runAvg speedWind from/ knotsBaromVisibWave heightAir tempDewpointWater temp
2016-Dec-05 05:06N 46°41' W 003°02'10 0.5
2016-Dec-04 06:16N 46°32' W 002°55'3 3.4
2016-Dec-04 05:19N 46°29' W 002°54'37 1.7
2016-Dec-03 07:33N 47°04' W 002°42'10 9.6
2016-Dec-03 06:30N 47°14' W 002°36'3 0.7
2016-Dec-03 02:12N 47°16' W 002°35'710.1
2016-Dec-03 01:33N 47°11' W 002°39'45 3.7
2016-Dec-02 13:25N 46°28' W 003°02'3 3.6
2016-Dec-02 12:33N 46°25' W 003°00'7 3.5
2016-Dec-02 10:32N 46°21' W 002°52'16 3.3
2016-Dec-02 05:32N 46°37' W 002°57'1 1.4
2016-Dec-02 04:33N 46°38' W 002°59'4 3.4
2016-Dec-02 03:30N 46°35' W 002°56'3 3.6
2016-Dec-02 02:33N 46°32' W 002°55'6 2.6
2016-Dec-02 00:09N 46°38' W 002°59'2 3.2
2016-Dec-01 23:33N 46°36' W 002°57'4 3.7
2016-Dec-01 22:30N 46°32' W 002°56'7 2.8
2016-Dec-01 20:06N 46°39' W 002°60'1 0.6
2016-Dec-01 19:06N 46°38' W 002°59'29 0.7
2016-Nov-30 04:33N 47°05' W 002°45'9 9.3
2016-Nov-30 03:33N 47°13' W 002°38'7 7.2
2016-Nov-30 02:33N 47°18' W 002°31'1 0.5
2016-Nov-30 01:20N 47°18' W 002°31'6 7.6
2016-Nov-30 00:32N 47°19' W 002°40'10 9.7
2016-Nov-29 23:30N 47°14' W 002°52'8 8.9
2016-Nov-29 22:33N 47°09' W 003°03'8 8.2
2016-Nov-29 21:33N 47°05' W 003°13'17 0.4
2016-Nov-28 05:27N 46°48' W 003°09'8 9.0
2016-Nov-28 04:31N 46°55' W 003°01'9 9.0
2016-Nov-28 03:33N 47°01' W 002°53'9 8.9
2016-Nov-28 02:33N 47°09' W 002°45'9 8.8
2016-Nov-28 01:33N 47°15' W 002°37'5 5.0
2016-Nov-28 00:33N 47°18' W 002°31'0 0.0
2016-Nov-26 05:09N 47°18' W 002°31'0 0.0
2016-Nov-26 04:30N 47°18' W 002°31'0 0.0
2016-Nov-26 03:30N 47°18' W 002°31'0 0.1
2016-Nov-26 02:26N 47°18' W 002°31'2 1.2
2016-Nov-26 00:32N 47°19' W 002°34'9 9.3
2016-Nov-25 23:33N 47°11' W 002°40'  

Dump ship's entire track history